createdAt,value
2023-03-10T00:00:54.340Z,61.00
2023-03-10T00:01:54.498Z,58.80
2023-03-10T00:02:54.671Z,60.90
2023-03-10T00:03:54.822Z,62.10
2023-03-10T00:04:55.050Z,60.00
2023-03-10T00:05:55.254Z,62.60
2023-03-10T00:06:55.393Z,62.00
2023-03-10T00:07:55.555Z,60.80
2023-03-10T00:08:55.723Z,58.20
2023-03-10T00:09:55.884Z,57.90
2023-03-10T00:10:56.042Z,56.10
2023-03-10T00:11:56.207Z,57.90
2023-03-10T00:12:56.380Z,57.60
2023-03-10T00:13:56.530Z,58.40
2023-03-10T00:14:56.675Z,59.40
2023-03-10T00:15:56.865Z,58.90
2023-03-10T00:16:57.039Z,57.60
2023-03-10T00:17:57.200Z,57.40
2023-03-10T00:18:57.376Z,57.30
2023-03-10T00:19:57.532Z,56.80
2023-03-10T00:20:57.701Z,57.40
2023-03-10T00:21:57.864Z,65.50
2023-03-10T00:22:58.036Z,62.70
2023-03-10T00:23:58.191Z,58.30
2023-03-10T00:24:58.371Z,58.90
2023-03-10T00:25:58.532Z,59.90
2023-03-10T00:26:58.686Z,60.00
2023-03-10T00:27:58.856Z,60.60
2023-03-10T00:28:59.015Z,58.30
2023-03-10T00:29:59.160Z,59.30
2023-03-10T00:30:59.371Z,58.60
2023-03-10T00:31:59.444Z,57.20
2023-03-10T00:32:59.617Z,56.60
2023-03-10T00:33:59.765Z,56.70
2023-03-10T00:34:59.929Z,56.40
2023-03-10T00:36:00.149Z,56.50
2023-03-10T00:37:00.211Z,56.30
2023-03-10T00:38:00.370Z,58.50
2023-03-10T00:39:00.533Z,59.70
2023-03-10T00:40:00.718Z,64.00
2023-03-10T00:41:00.852Z,65.40
2023-03-10T00:42:01.019Z,66.30
2023-03-10T00:43:01.211Z,62.00
2023-03-10T00:44:01.372Z,58.90
2023-03-10T00:45:01.522Z,56.30
2023-03-10T00:46:01.748Z,56.60
2023-03-10T00:47:01.882Z,55.70
2023-03-10T00:48:02.048Z,56.70
2023-03-10T00:49:02.249Z,55.00
2023-03-10T00:50:02.387Z,55.80
2023-03-10T00:51:02.547Z,55.10
2023-03-10T00:52:02.696Z,54.60
2023-03-10T00:53:02.864Z,53.60
2023-03-10T00:54:03.017Z,53.90
2023-03-10T00:55:03.187Z,54.00
2023-03-10T00:56:03.347Z,53.70
2023-03-10T00:57:03.514Z,53.50
2023-03-10T00:58:03.666Z,53.60
2023-03-10T00:59:03.829Z,53.10
2023-03-10T01:00:03.992Z,55.20
2023-03-10T01:01:04.150Z,54.20
2023-03-10T01:02:04.352Z,54.30
2023-03-10T01:03:04.550Z,54.20
2023-03-10T01:04:04.789Z,53.00
2023-03-10T01:05:04.837Z,55.00
2023-03-10T01:06:04.992Z,53.60
2023-03-10T01:07:05.172Z,54.30
2023-03-10T01:08:05.322Z,55.50
2023-03-10T01:09:05.523Z,54.40
2023-03-10T01:10:05.671Z,55.40
2023-03-10T01:11:05.831Z,55.20
2023-03-10T01:12:05.990Z,55.60
2023-03-10T01:13:06.162Z,54.40
2023-03-10T01:14:06.307Z,55.20
2023-03-10T01:15:06.470Z,55.70
2023-03-10T01:16:06.662Z,54.70
2023-03-10T01:17:06.852Z,57.00
2023-03-10T01:18:06.997Z,57.30
2023-03-10T01:19:07.159Z,56.60
2023-03-10T01:20:07.340Z,56.50
2023-03-10T01:21:07.492Z,58.50
2023-03-10T01:22:07.671Z,58.80
2023-03-10T01:23:07.837Z,59.40
2023-03-10T01:24:07.997Z,59.90
2023-03-10T01:25:08.158Z,63.60
2023-03-10T01:26:08.305Z,64.50
2023-03-10T01:27:08.500Z,65.40
2023-03-10T01:28:08.663Z,71.00
2023-03-10T01:29:08.832Z,71.20
2023-03-10T01:30:09.008Z,71.70
2023-03-10T01:31:09.188Z,75.30
2023-03-10T01:32:09.379Z,73.60
2023-03-10T01:33:09.531Z,74.50
2023-03-10T01:34:09.690Z,75.30
2023-03-10T01:35:09.852Z,76.50
2023-03-10T01:36:10.072Z,76.30
2023-03-10T01:37:10.129Z,77.00
2023-03-10T01:38:10.298Z,70.90
2023-03-10T01:39:10.451Z,69.30
2023-03-10T01:40:10.604Z,71.00
2023-03-10T01:41:10.772Z,68.70
2023-03-10T01:42:10.927Z,65.40
2023-03-10T01:43:11.104Z,66.30
2023-03-10T01:44:11.251Z,67.00
2023-03-10T01:45:11.406Z,66.30
2023-03-10T01:46:11.592Z,64.30
2023-03-10T01:47:11.725Z,61.70
2023-03-10T01:48:11.897Z,61.40
2023-03-10T01:49:12.049Z,59.90
2023-03-10T01:50:12.201Z,59.30
2023-03-10T01:51:12.353Z,59.50
2023-03-10T01:52:12.510Z,58.70
2023-03-10T01:53:12.673Z,55.70
2023-03-10T01:54:12.827Z,56.40
2023-03-10T01:55:12.992Z,56.10
2023-03-10T01:56:13.157Z,55.50
2023-03-10T01:57:13.284Z,54.40
2023-03-10T01:58:13.449Z,53.80
2023-03-10T01:59:13.621Z,54.10
2023-03-10T02:00:13.780Z,54.10
2023-03-10T02:01:14.018Z,54.40
2023-03-10T02:02:14.112Z,52.30
2023-03-10T02:03:14.309Z,52.30
2023-03-10T02:04:14.362Z,54.00
2023-03-10T02:05:14.532Z,51.30
2023-03-10T02:06:14.679Z,52.20
2023-03-10T02:07:14.855Z,54.20
2023-03-10T02:08:15.040Z,52.20
2023-03-10T02:09:15.200Z,52.20
2023-03-10T02:10:15.370Z,53.80
2023-03-10T02:11:15.545Z,53.30
2023-03-10T02:12:15.717Z,54.30
2023-03-10T02:13:15.872Z,53.90
2023-03-10T02:14:16.030Z,54.00
2023-03-10T02:15:16.197Z,52.20
2023-03-10T02:16:16.398Z,52.40
2023-03-10T02:17:16.569Z,52.90
2023-03-10T02:18:16.744Z,52.70
2023-03-10T02:19:16.916Z,52.50
2023-03-10T02:20:17.084Z,52.70
2023-03-10T02:21:17.258Z,54.10
2023-03-10T02:22:17.450Z,53.70
2023-03-10T02:23:17.643Z,54.60
2023-03-10T02:24:17.800Z,52.00
2023-03-10T02:25:17.997Z,51.10
2023-03-10T02:26:18.186Z,51.50
2023-03-10T02:27:18.440Z,52.20
2023-03-10T02:28:18.553Z,52.10
2023-03-10T02:29:18.597Z,51.30
2023-03-10T02:30:18.767Z,51.10
2023-03-10T02:31:19.069Z,49.70
2023-03-10T02:32:19.179Z,51.30
2023-03-10T02:33:19.300Z,49.00
2023-03-10T02:34:19.377Z,50.60
2023-03-10T02:35:19.534Z,53.60
2023-03-10T02:36:19.684Z,54.50
2023-03-10T02:37:19.870Z,53.80
2023-03-10T02:38:20.068Z,54.30
2023-03-10T02:39:20.344Z,53.90
2023-03-10T02:40:20.501Z,54.50
2023-03-10T02:41:20.570Z,54.30
2023-03-10T02:42:20.730Z,54.00
2023-03-10T02:43:20.938Z,55.30
2023-03-10T02:44:21.014Z,54.50
2023-03-10T02:45:21.290Z,55.60
2023-03-10T02:46:21.384Z,55.20
2023-03-10T02:47:21.538Z,55.10
2023-03-10T02:48:21.708Z,55.90
2023-03-10T02:49:21.886Z,55.80
2023-03-10T02:50:22.019Z,56.40
2023-03-10T02:51:22.192Z,56.70
2023-03-10T02:52:22.370Z,55.90
2023-03-10T02:53:22.532Z,55.40
2023-03-10T02:54:22.680Z,55.70
2023-03-10T02:55:22.842Z,55.40
2023-03-10T02:56:22.993Z,56.00
2023-03-10T02:57:23.172Z,55.00
2023-03-10T02:58:23.322Z,55.10
2023-03-10T02:59:23.491Z,56.00
2023-03-10T03:00:23.633Z,53.70
2023-03-10T03:01:23.881Z,53.70
2023-03-10T03:02:23.907Z,54.30
2023-03-10T03:03:24.096Z,53.00
2023-03-10T03:04:24.254Z,52.40
2023-03-10T03:05:24.427Z,51.60
2023-03-10T03:06:24.560Z,53.40
2023-03-10T03:07:24.716Z,52.50
2023-03-10T03:08:24.973Z,54.10
2023-03-10T03:09:25.022Z,52.60
2023-03-10T03:10:25.230Z,51.30
2023-03-10T03:11:25.311Z,51.20
2023-03-10T03:12:25.460Z,52.70
2023-03-10T03:13:25.636Z,51.30
2023-03-10T03:14:25.798Z,51.70
2023-03-10T03:15:25.965Z,52.70
2023-03-10T03:16:26.171Z,50.10
2023-03-10T03:17:26.298Z,50.80
2023-03-10T03:18:26.473Z,52.90
2023-03-10T03:19:29.378Z,52.30
2023-03-10T03:20:26.799Z,54.30
2023-03-10T03:21:27.068Z,53.70
2023-03-10T03:22:27.123Z,53.90
2023-03-10T03:23:27.291Z,52.40
2023-03-10T03:24:27.456Z,53.50
2023-03-10T03:25:27.637Z,53.90
2023-03-10T03:26:27.790Z,53.60
2023-03-10T03:27:27.958Z,52.30
2023-03-10T03:28:28.124Z,53.90
2023-03-10T03:29:28.294Z,52.40
2023-03-10T03:30:28.470Z,52.10
2023-03-10T03:31:35.653Z,53.90
2023-03-10T03:32:28.867Z,57.10
2023-03-10T03:33:31.623Z,54.30
2023-03-10T03:34:29.922Z,55.10
2023-03-10T03:35:29.355Z,54.60
2023-03-10T03:36:29.502Z,54.10
2023-03-10T03:37:29.692Z,53.60
2023-03-10T03:38:29.857Z,55.10
2023-03-10T03:39:30.101Z,54.50
2023-03-10T03:40:30.153Z,53.70
2023-03-10T03:41:30.319Z,51.70
2023-03-10T03:42:30.480Z,54.20
2023-03-10T03:43:30.647Z,53.90
2023-03-10T03:44:30.802Z,53.00
2023-03-10T03:45:30.971Z,55.30
2023-03-10T03:46:31.176Z,52.90
2023-03-10T03:47:31.345Z,52.60
2023-03-10T03:48:31.522Z,53.00
2023-03-10T03:49:31.691Z,53.30
2023-03-10T03:50:31.847Z,52.50
2023-03-10T03:51:32.013Z,54.40
2023-03-10T03:52:32.159Z,52.50
2023-03-10T03:53:32.337Z,51.90
2023-03-10T03:54:32.500Z,52.40
2023-03-10T03:55:32.663Z,53.20
2023-03-10T03:56:32.823Z,53.60
2023-03-10T03:57:32.994Z,52.40
2023-03-10T03:58:33.161Z,53.00
2023-03-10T03:59:33.343Z,53.50
2023-03-10T04:00:33.491Z,54.30
2023-03-10T04:01:33.671Z,54.00
2023-03-10T04:02:33.863Z,53.40
2023-03-10T04:03:34.052Z,53.40
2023-03-10T04:04:34.182Z,51.60
2023-03-10T04:05:34.341Z,53.10
2023-03-10T04:06:34.488Z,53.00
2023-03-10T04:07:34.653Z,52.90
2023-03-10T04:08:34.804Z,53.00
2023-03-10T04:09:34.961Z,53.30
2023-03-10T04:10:35.108Z,54.70
2023-03-10T04:11:35.278Z,53.10
2023-03-10T04:12:35.422Z,53.30
2023-03-10T04:13:35.595Z,53.90
2023-03-10T04:14:35.742Z,54.40
2023-03-10T04:15:35.938Z,51.90
2023-03-10T04:16:36.020Z,54.10
2023-03-10T04:17:36.184Z,54.90
2023-03-10T04:18:36.331Z,56.80
2023-03-10T04:19:36.492Z,53.90
2023-03-10T04:20:36.668Z,52.90
2023-03-10T04:21:36.823Z,53.80
2023-03-10T04:22:36.977Z,54.60
2023-03-10T04:23:37.151Z,52.90
2023-03-10T04:24:37.303Z,54.30
2023-03-10T04:25:37.474Z,53.30
2023-03-10T04:26:37.620Z,51.70
2023-03-10T04:27:37.780Z,52.90
2023-03-10T04:28:37.955Z,53.50
2023-03-10T04:29:38.128Z,53.90
2023-03-10T04:30:38.318Z,51.50
2023-03-10T04:31:38.636Z,55.10
2023-03-10T04:32:38.716Z,54.10
2023-03-10T04:33:38.773Z,51.80
2023-03-10T04:34:38.962Z,52.00
2023-03-10T04:35:39.164Z,53.50
2023-03-10T04:36:39.311Z,54.50
2023-03-10T04:37:39.482Z,56.00
2023-03-10T04:38:39.644Z,54.90
2023-03-10T04:39:39.809Z,54.20
2023-03-10T04:40:39.981Z,52.90
2023-03-10T04:41:40.182Z,53.40
2023-03-10T04:42:40.356Z,54.70
2023-03-10T04:43:42.693Z,52.70
2023-03-10T04:44:40.641Z,54.70
2023-03-10T04:45:40.792Z,54.90
2023-03-10T04:46:41.009Z,55.00
2023-03-10T04:47:41.058Z,55.80
2023-03-10T04:48:41.252Z,55.40
2023-03-10T04:49:41.409Z,55.90
2023-03-10T04:50:41.580Z,55.70
2023-03-10T04:51:41.735Z,55.60
2023-03-10T04:52:41.908Z,55.20
2023-03-10T04:53:42.094Z,54.40
2023-03-10T04:54:42.244Z,56.40
2023-03-10T04:55:42.391Z,55.10
2023-03-10T04:56:42.566Z,57.10
2023-03-10T04:57:42.738Z,56.20
2023-03-10T04:58:42.954Z,57.90
2023-03-10T04:59:43.023Z,58.30
2023-03-10T05:01:00.374Z,56.10
2023-03-10T05:01:44.413Z,57.80
2023-03-10T05:02:43.484Z,56.80
2023-03-10T05:03:43.687Z,56.80
2023-03-10T05:04:43.961Z,56.40
2023-03-10T05:05:44.052Z,59.10
2023-03-10T05:06:45.182Z,57.20
2023-03-10T05:07:44.364Z,58.90
2023-03-10T05:08:44.566Z,56.50
2023-03-10T05:09:44.758Z,54.70
2023-03-10T05:10:44.961Z,57.10
2023-03-10T05:11:45.156Z,54.60
2023-03-10T05:12:45.356Z,56.80
2023-03-10T05:13:45.563Z,56.20
2023-03-10T05:14:45.787Z,56.30
2023-03-10T05:15:45.934Z,57.40
2023-03-10T05:16:46.040Z,57.50
2023-03-10T05:17:48.830Z,56.90
2023-03-10T05:18:46.405Z,56.50
2023-03-10T05:19:46.596Z,59.00
2023-03-10T05:20:46.795Z,58.10
2023-03-10T05:21:46.994Z,55.80
2023-03-10T05:22:47.167Z,56.70
2023-03-10T05:23:47.347Z,54.90
2023-03-10T05:24:47.512Z,58.40
2023-03-10T05:25:47.682Z,58.60
2023-03-10T05:26:47.862Z,58.80
2023-03-10T05:27:48.037Z,59.30
2023-03-10T05:28:48.209Z,59.50
2023-03-10T05:29:48.370Z,58.00
2023-03-10T05:30:48.549Z,58.20
2023-03-10T05:31:48.773Z,56.10
2023-03-10T05:32:48.916Z,57.60
2023-03-10T05:33:48.974Z,57.60
2023-03-10T05:34:49.154Z,56.40
2023-03-10T05:35:49.333Z,56.40
2023-03-10T05:36:49.493Z,58.30
2023-03-10T05:37:49.661Z,55.90
2023-03-10T05:38:49.875Z,57.90
2023-03-10T05:39:50.038Z,59.00
2023-03-10T05:40:50.224Z,58.80
2023-03-10T05:41:50.393Z,59.60
2023-03-10T05:42:50.568Z,58.10
2023-03-10T05:43:50.769Z,57.90
2023-03-10T05:44:50.928Z,59.10
2023-03-10T05:45:51.088Z,58.60
2023-03-10T05:46:51.326Z,59.00
2023-03-10T05:47:51.361Z,58.90
2023-03-10T05:48:51.564Z,59.10
2023-03-10T05:49:51.729Z,58.70
2023-03-10T05:50:51.963Z,59.50
2023-03-10T05:51:52.083Z,59.80
2023-03-10T05:52:52.265Z,59.10
2023-03-10T05:53:52.445Z,58.90
2023-03-10T05:54:52.621Z,59.30
2023-03-10T05:55:52.826Z,58.80
2023-03-10T05:56:53.002Z,59.50
2023-03-10T05:57:53.183Z,59.10
2023-03-10T05:58:53.391Z,59.20
2023-03-10T05:59:53.551Z,59.00
2023-03-10T06:00:53.773Z,59.60
2023-03-10T06:01:53.931Z,59.90
2023-03-10T06:02:54.147Z,57.80
2023-03-10T06:03:54.407Z,60.10
2023-03-10T06:04:54.472Z,63.20
2023-03-10T06:05:54.668Z,62.30
2023-03-10T06:06:54.865Z,63.00
2023-03-10T06:07:55.034Z,62.10
2023-03-10T06:08:55.240Z,61.00
2023-03-10T06:09:55.399Z,63.30
2023-03-10T06:10:55.596Z,63.60
2023-03-10T06:11:55.738Z,64.50
2023-03-10T06:12:55.918Z,63.60
2023-03-10T06:13:56.120Z,62.00
2023-03-10T06:14:56.297Z,60.60
2023-03-10T06:15:56.494Z,60.20
2023-03-10T06:16:56.697Z,62.90
2023-03-10T06:17:56.879Z,62.60
2023-03-10T06:18:57.113Z,64.30
2023-03-10T06:19:57.305Z,63.30
2023-03-10T06:20:57.491Z,61.80
2023-03-10T06:21:57.656Z,61.70
2023-03-10T06:22:57.835Z,63.00
2023-03-10T06:23:58.036Z,64.90
2023-03-10T06:24:58.224Z,63.30
2023-03-10T06:25:58.390Z,66.20
2023-03-10T06:26:58.583Z,65.40
2023-03-10T06:27:58.757Z,66.00
2023-03-10T06:28:58.961Z,64.40
2023-03-10T06:29:59.136Z,63.50
2023-03-10T06:30:59.316Z,63.50
2023-03-10T06:31:59.523Z,66.50
2023-03-10T06:32:59.746Z,65.40
2023-03-10T06:34:00.797Z,65.00
2023-03-10T06:34:59.944Z,65.80
2023-03-10T06:36:00.208Z,64.90
2023-03-10T06:37:00.253Z,67.40
2023-03-10T06:38:00.418Z,67.10
2023-03-10T06:39:00.605Z,67.10
2023-03-10T06:40:00.787Z,68.00
2023-03-10T06:41:00.954Z,67.80
2023-03-10T06:42:01.132Z,68.20
2023-03-10T06:43:01.283Z,67.60
2023-03-10T06:44:01.461Z,66.90
2023-03-10T06:45:01.652Z,68.70
2023-03-10T06:46:01.852Z,70.10
2023-03-10T06:47:02.023Z,68.10
2023-03-10T06:48:02.192Z,70.20
2023-03-10T06:49:02.394Z,68.90
2023-03-10T06:50:02.551Z,69.60
2023-03-10T06:51:02.736Z,68.20
2023-03-10T06:52:02.909Z,70.90
2023-03-10T06:53:03.068Z,69.50
2023-03-10T06:54:03.256Z,69.10
2023-03-10T06:55:03.435Z,69.80
2023-03-10T06:56:03.594Z,69.50
2023-03-10T06:57:03.760Z,74.10
2023-03-10T06:58:03.943Z,69.40
2023-03-10T06:59:04.140Z,71.60
2023-03-10T07:00:04.301Z,70.60
2023-03-10T07:01:04.526Z,73.10
2023-03-10T07:02:04.662Z,74.70
2023-03-10T07:03:04.832Z,75.90
2023-03-10T07:04:05.031Z,70.50
2023-03-10T07:05:05.299Z,70.90
2023-03-10T07:06:05.366Z,74.60
2023-03-10T07:07:05.528Z,72.70
2023-03-10T07:08:05.754Z,70.40
2023-03-10T07:09:05.844Z,77.90
2023-03-10T07:10:08.174Z,78.30
2023-03-10T07:11:06.197Z,75.10
2023-03-10T07:12:06.350Z,70.30
2023-03-10T07:13:06.525Z,69.90
2023-03-10T07:14:06.700Z,73.40
2023-03-10T07:15:06.876Z,69.40
2023-03-10T07:16:07.043Z,70.90
2023-03-10T07:17:07.300Z,69.60
2023-03-10T07:18:07.409Z,71.40
2023-03-10T07:19:07.589Z,71.30
2023-03-10T07:20:07.735Z,71.10
2023-03-10T07:21:07.924Z,72.20
2023-03-10T07:22:10.343Z,71.60
2023-03-10T07:23:08.168Z,74.30
2023-03-10T07:24:08.363Z,72.70
2023-03-10T07:25:08.443Z,71.70
2023-03-10T07:26:08.599Z,75.90
2023-03-10T07:27:08.762Z,70.40
2023-03-10T07:28:08.922Z,72.80
2023-03-10T07:29:09.105Z,70.00
2023-03-10T07:30:09.249Z,66.70
2023-03-10T07:31:09.524Z,68.70
2023-03-10T07:32:09.584Z,69.40
2023-03-10T07:33:09.711Z,68.70
2023-03-10T07:34:09.886Z,68.00
2023-03-10T07:35:10.062Z,67.40
2023-03-10T07:36:10.286Z,67.90
2023-03-10T07:37:10.335Z,70.00
2023-03-10T07:38:10.548Z,67.50
2023-03-10T07:39:10.623Z,67.50
2023-03-10T07:40:10.775Z,67.90
2023-03-10T07:41:10.939Z,67.80
2023-03-10T07:42:11.078Z,68.00
2023-03-10T07:43:11.238Z,69.80
2023-03-10T07:44:11.415Z,68.80
2023-03-10T07:45:11.566Z,69.50
2023-03-10T07:46:11.732Z,70.20
2023-03-10T07:47:11.873Z,69.30
2023-03-10T07:48:12.895Z,70.20
2023-03-10T07:49:12.147Z,70.10
2023-03-10T07:50:12.292Z,72.20
2023-03-10T07:51:12.492Z,73.00
2023-03-10T07:52:12.629Z,72.50
2023-03-10T07:53:12.783Z,74.60
2023-03-10T07:54:12.977Z,73.20
2023-03-10T07:55:13.116Z,74.60
2023-03-10T07:56:13.263Z,75.40
2023-03-10T07:57:13.902Z,75.60
2023-03-10T07:58:13.486Z,73.70
2023-03-10T07:59:13.667Z,75.40
2023-03-10T08:00:13.806Z,75.90
2023-03-10T08:01:13.976Z,77.90
2023-03-10T08:02:14.096Z,77.90
2023-03-10T08:03:14.253Z,77.00
2023-03-10T08:04:14.582Z,78.50
2023-03-10T08:05:14.642Z,76.40
2023-03-10T08:06:14.680Z,80.50
2023-03-10T08:07:14.832Z,78.60
2023-03-10T08:08:15.527Z,79.90
2023-03-10T08:09:15.128Z,80.40
2023-03-10T08:10:15.247Z,79.80
2023-03-10T08:11:15.410Z,78.00
2023-03-10T08:12:15.518Z,86.10
2023-03-10T08:13:15.672Z,87.00
2023-03-10T08:14:16.290Z,80.60
2023-03-10T08:15:15.972Z,87.90
2023-03-10T08:16:16.665Z,88.20
2023-03-10T08:17:16.282Z,90.20
2023-03-10T08:18:16.386Z,95.90
2023-03-10T08:19:16.523Z,99.30
2023-03-10T08:20:16.632Z,106.50
2023-03-10T08:21:16.728Z,107.60
2023-03-10T08:22:16.827Z,109.20
2023-03-10T08:23:16.936Z,105.50
2023-03-10T08:24:17.070Z,105.50
2023-03-10T08:25:17.163Z,101.60
2023-03-10T08:26:17.233Z,103.40
2023-03-10T08:27:17.319Z,120.00
2023-03-10T08:28:17.411Z,116.80
2023-03-10T08:29:17.495Z,99.50
2023-03-10T08:30:17.573Z,99.00
2023-03-10T08:31:17.709Z,107.80
2023-03-10T08:32:17.845Z,97.60
2023-03-10T08:33:17.914Z,109.30
2023-03-10T08:34:18.015Z,108.40
2023-03-10T08:35:18.137Z,99.70
2023-03-10T08:36:18.264Z,102.00
2023-03-10T08:37:18.329Z,101.50
2023-03-10T08:38:18.542Z,105.20
2023-03-10T08:39:18.641Z,101.20
2023-03-10T08:40:18.757Z,103.30
2023-03-10T08:41:19.148Z,101.60
2023-03-10T08:42:18.979Z,108.00
2023-03-10T08:43:19.061Z,106.40
2023-03-10T08:44:19.170Z,107.40
2023-03-10T08:45:19.297Z,101.80
2023-03-10T08:46:19.988Z,107.10
2023-03-10T08:47:19.511Z,106.70
2023-03-10T08:48:19.679Z,108.00
2023-03-10T08:49:19.777Z,111.50
2023-03-10T08:50:19.867Z,110.00
2023-03-10T08:51:20.243Z,105.40
2023-03-10T08:52:20.082Z,102.30
2023-03-10T08:53:20.149Z,103.00
2023-03-10T08:54:20.256Z,98.10
2023-03-10T08:55:20.293Z,102.70
2023-03-10T08:56:20.734Z,108.10
2023-03-10T08:57:20.551Z,102.50
2023-03-10T08:58:20.750Z,101.60
2023-03-10T08:59:20.809Z,97.20
2023-03-10T09:00:21.013Z,98.20
2023-03-10T09:01:21.052Z,96.70
2023-03-10T09:02:21.281Z,99.40
2023-03-10T09:03:21.311Z,96.50
2023-03-10T09:04:21.376Z,97.10
2023-03-10T09:05:21.911Z,89.90
2023-03-10T09:06:21.593Z,93.50
2023-03-10T09:07:21.765Z,90.10
2023-03-10T09:08:21.790Z,92.70
2023-03-10T09:09:21.933Z,91.00
2023-03-10T09:10:22.051Z,88.90
2023-03-10T09:11:22.133Z,90.90
2023-03-10T09:12:22.259Z,89.60
2023-03-10T09:13:22.368Z,94.70
2023-03-10T09:14:22.488Z,91.50
2023-03-10T09:15:22.594Z,86.20
2023-03-10T09:16:22.753Z,93.00
2023-03-10T09:17:22.846Z,91.30
2023-03-10T09:18:22.946Z,111.80
2023-03-10T09:19:23.079Z,86.60
2023-03-10T09:20:23.176Z,91.60
2023-03-10T09:21:23.275Z,86.50
2023-03-10T09:22:23.374Z,88.60
2023-03-10T09:23:23.487Z,86.00
2023-03-10T09:24:23.614Z,87.70
2023-03-10T09:25:23.714Z,88.70
2023-03-10T09:26:23.837Z,93.20
2023-03-10T09:27:23.944Z,83.10
2023-03-10T09:28:24.065Z,84.00
2023-03-10T09:29:41.794Z,77.10
2023-03-10T09:30:25.234Z,77.10
2023-03-10T09:32:22.767Z,83.40
2023-03-10T09:33:22.753Z,83.10
2023-03-10T09:34:22.884Z,83.70
2023-03-10T09:35:23.101Z,77.00
2023-03-10T09:36:23.200Z,82.50
2023-03-10T09:37:23.218Z,82.30
2023-03-10T09:38:23.361Z,84.00
2023-03-10T09:39:23.513Z,75.10
2023-03-10T09:40:23.740Z,81.20
2023-03-10T09:41:23.745Z,90.70
2023-03-10T09:42:36.423Z,84.80
2023-03-10T09:43:24.959Z,86.70
2023-03-10T09:44:24.106Z,83.30
2023-03-10T09:45:24.238Z,79.00
2023-03-10T09:46:24.385Z,75.60
2023-03-10T09:47:24.496Z,77.30
2023-03-10T09:48:26.360Z,80.40
2023-03-10T09:49:24.802Z,83.00
2023-03-10T09:50:24.948Z,87.40
2023-03-10T09:51:25.089Z,80.80
2023-03-10T09:52:25.221Z,86.90
2023-03-10T09:53:25.358Z,93.20
2023-03-10T09:54:25.512Z,87.90
2023-03-10T09:55:25.666Z,94.20
2023-03-10T09:56:25.802Z,86.30
2023-03-10T09:57:25.944Z,89.60
2023-03-10T09:58:26.087Z,91.10
2023-03-10T09:59:26.240Z,87.80
2023-03-10T10:00:26.379Z,89.30
2023-03-10T10:01:26.523Z,92.30
2023-03-10T10:02:26.657Z,88.30
2023-03-10T10:03:26.792Z,93.90
2023-03-10T10:04:27.005Z,95.40
2023-03-10T10:05:27.012Z,93.20
2023-03-10T10:06:28.688Z,94.80
2023-03-10T10:07:27.299Z,93.70
2023-03-10T10:08:28.947Z,100.30
2023-03-10T10:09:27.627Z,98.30
2023-03-10T10:10:27.754Z,92.80
2023-03-10T10:11:27.887Z,92.60
2023-03-10T10:12:28.024Z,91.30
2023-03-10T10:13:28.149Z,93.10
2023-03-10T10:14:30.544Z,91.60
2023-03-10T10:15:28.366Z,87.90
2023-03-10T10:16:34.610Z,81.80
2023-03-10T10:17:29.684Z,79.40
2023-03-10T10:18:28.913Z,70.90
2023-03-10T10:19:28.880Z,75.70
2023-03-10T10:20:29.080Z,78.00
2023-03-10T10:21:40.427Z,76.30
2023-03-10T10:22:30.305Z,83.90
2023-03-10T10:23:29.453Z,77.60
2023-03-10T10:24:29.613Z,77.40
2023-03-10T10:25:29.748Z,75.60
2023-03-10T10:26:29.900Z,72.60
2023-03-10T10:27:30.041Z,69.00
2023-03-10T10:28:30.190Z,76.90
2023-03-10T10:29:30.298Z,76.20
2023-03-10T10:30:30.514Z,83.40
2023-03-10T10:31:30.610Z,79.20
2023-03-10T10:32:30.687Z,75.10
2023-03-10T10:33:30.793Z,74.00
2023-03-10T10:34:30.951Z,72.70
2023-03-10T10:35:31.074Z,69.10
2023-03-10T10:36:31.242Z,73.70
2023-03-10T10:37:31.373Z,75.10
2023-03-10T10:38:31.513Z,69.20
2023-03-10T10:39:31.679Z,68.20
2023-03-10T10:40:31.820Z,71.30
2023-03-10T10:41:31.955Z,74.60
2023-03-10T10:42:32.084Z,72.90
2023-03-10T10:43:33.616Z,67.20
2023-03-10T10:44:32.426Z,63.30
2023-03-10T10:45:32.564Z,66.40
2023-03-10T10:46:32.844Z,64.30
2023-03-10T10:47:32.890Z,62.80
2023-03-10T10:48:32.995Z,61.00
2023-03-10T10:49:33.146Z,60.20
2023-03-10T10:50:33.281Z,54.30
2023-03-10T10:51:33.420Z,56.50
2023-03-10T10:52:33.560Z,53.40
2023-03-10T10:53:33.682Z,60.50
2023-03-10T10:54:33.865Z,55.30
2023-03-10T10:55:34.011Z,55.30
2023-03-10T10:56:34.150Z,55.50
2023-03-10T10:57:34.275Z,52.90
2023-03-10T10:58:34.433Z,52.70
2023-03-10T10:59:34.565Z,55.20
2023-03-10T11:00:34.711Z,55.50
2023-03-10T11:01:34.872Z,54.80
2023-03-10T11:02:35.131Z,54.90
2023-03-10T11:03:35.128Z,53.90
2023-03-10T11:04:35.321Z,55.00
2023-03-10T11:05:35.432Z,56.50
2023-03-10T11:06:35.558Z,56.20
2023-03-10T11:07:35.690Z,56.90
2023-03-10T11:08:35.832Z,58.10
2023-03-10T11:09:35.978Z,59.00
2023-03-10T11:10:36.119Z,62.20
2023-03-10T11:11:36.278Z,59.10
2023-03-10T11:12:36.461Z,58.10
2023-03-10T11:13:36.576Z,57.00
2023-03-10T11:14:36.725Z,61.00
2023-03-10T11:15:36.938Z,62.40
2023-03-10T11:16:36.994Z,64.90
2023-03-10T11:17:37.134Z,63.30
2023-03-10T11:18:37.273Z,64.30
2023-03-10T11:19:37.423Z,70.30
2023-03-10T11:20:37.554Z,65.80
2023-03-10T11:21:37.690Z,70.00
2023-03-10T11:22:37.818Z,72.70
2023-03-10T11:23:37.969Z,70.40
2023-03-10T11:24:38.143Z,71.30
2023-03-10T11:25:38.292Z,74.70
2023-03-10T11:26:38.412Z,71.70
2023-03-10T11:27:38.568Z,68.90
2023-03-10T11:28:38.692Z,67.20
2023-03-10T11:29:38.928Z,70.50
2023-03-10T11:30:39.105Z,78.00
2023-03-10T11:31:39.201Z,76.40
2023-03-10T11:32:39.379Z,69.00
2023-03-10T11:33:39.439Z,70.70
2023-03-10T11:34:39.600Z,66.80
2023-03-10T11:35:39.750Z,68.10
2023-03-10T11:36:53.263Z,66.40
2023-03-10T11:37:41.020Z,67.10
2023-03-10T11:38:40.223Z,69.80
2023-03-10T11:39:40.293Z,68.00
2023-03-10T11:40:40.429Z,64.10
2023-03-10T11:41:40.572Z,66.30
2023-03-10T11:42:40.745Z,67.30
2023-03-10T11:43:40.911Z,67.10
2023-03-10T11:44:41.057Z,67.00
2023-03-10T11:45:41.221Z,64.90
2023-03-10T11:46:41.444Z,65.50
2023-03-10T11:47:42.059Z,63.70
2023-03-10T11:48:41.701Z,60.40
2023-03-10T11:49:41.870Z,66.20
2023-03-10T11:50:42.018Z,63.60
2023-03-10T11:51:42.198Z,65.90
2023-03-10T11:52:42.344Z,64.40
2023-03-10T11:53:42.496Z,65.60
2023-03-10T11:54:42.653Z,64.70
2023-03-10T11:55:42.804Z,66.80
2023-03-10T11:56:42.969Z,62.80
2023-03-10T11:57:43.127Z,64.50
2023-03-10T11:58:43.327Z,64.50
2023-03-10T11:59:43.479Z,66.10
2023-03-10T12:00:43.615Z,67.90
2023-03-10T12:01:43.773Z,68.00
2023-03-10T12:02:43.903Z,68.50
2023-03-10T12:03:44.137Z,69.00
2023-03-10T12:04:44.220Z,69.70
2023-03-10T12:05:44.402Z,64.00
2023-03-10T12:06:44.516Z,64.70
2023-03-10T12:07:44.652Z,60.90
2023-03-10T12:08:44.783Z,61.10
2023-03-10T12:09:44.958Z,61.40
2023-03-10T12:10:45.090Z,60.60
2023-03-10T12:11:45.231Z,60.30
2023-03-10T12:12:45.407Z,56.00
2023-03-10T12:13:45.559Z,58.30
2023-03-10T12:14:45.732Z,56.80
2023-03-10T12:15:45.892Z,59.60
2023-03-10T12:16:46.044Z,57.60
2023-03-10T12:17:46.216Z,60.40
2023-03-10T12:18:46.350Z,55.60
2023-03-10T12:19:46.568Z,55.30
2023-03-10T12:20:46.606Z,53.60
2023-03-10T12:21:46.753Z,50.30
2023-03-10T12:22:46.909Z,51.10
2023-03-10T12:23:47.037Z,51.90
2023-03-10T12:24:47.218Z,52.00
2023-03-10T12:25:47.350Z,56.40
2023-03-10T12:26:47.526Z,52.10
2023-03-10T12:27:47.661Z,51.70
2023-03-10T12:28:47.810Z,50.00
2023-03-10T12:29:47.989Z,54.00
2023-03-10T12:30:48.114Z,50.30
2023-03-10T12:31:48.355Z,50.10
2023-03-10T12:32:48.551Z,47.00
2023-03-10T12:33:48.575Z,46.00
2023-03-10T12:34:48.786Z,45.10
2023-03-10T12:35:48.823Z,45.30
2023-03-10T12:36:48.935Z,41.50
2023-03-10T12:37:49.090Z,44.80
2023-03-10T12:38:49.228Z,42.60
2023-03-10T12:39:49.393Z,42.70
2023-03-10T12:40:49.518Z,43.70
2023-03-10T12:41:49.660Z,40.00
2023-03-10T12:42:49.816Z,42.50
2023-03-10T12:43:49.952Z,38.60
2023-03-10T12:44:50.132Z,36.90
2023-03-10T12:45:50.281Z,44.10
2023-03-10T12:46:50.468Z,43.10
2023-03-10T12:47:50.541Z,36.10
2023-03-10T12:48:50.687Z,35.90
2023-03-10T12:49:50.856Z,40.00
2023-03-10T12:50:51.010Z,38.90
2023-03-10T12:51:51.217Z,37.80
2023-03-10T12:52:51.220Z,39.50
2023-03-10T12:53:51.369Z,37.00
2023-03-10T12:54:51.518Z,38.70